RJFFRJFO

Guest
Details From RJFF - FUKUOKA
To RJFO - OITA
Flight Number -
Tags generated
Created
Modified
Stats Distance 71 nm / 132 km
Max Altitude 8,600 ft / 2,621 m
Waypoints 3
Social Downloads 1
Likes 0
Share VATSIM

Download

Looking for another format? Having issues loading an existing format? Contact us
Advertisement - Login to hide

Notes

Basic altitude profile: - Ascent Rate: 2500ft/min - Ascent Speed: 250kts - Cruise Altitude: 35000ft - Cruise Speed: 420kts - Descent Rate: 1500ft/min - Descent Speed: 250kts Options: - Use NATs: yes - Use PACOTS: yes - Use low airways: yes - Use high airways: yes

Route

RJFF DGC25 RJFO

ID Type Via Altitude Latitude Longitude Leg Dist Tot Dist Heading (true) Name
O RJFF APT - 0 ft / 0 m 33.58594˚ 130.45069˚ - 0 nm - FUKUOKA
DGC25 FIX - 8,600 ft / 2,621 m 33.78821˚ 130.87091˚ 24 nm 24 nm 60° / 60° -
O RJFO APT - 0 ft / 0 m 33.47950˚ 131.73712˚ 47 nm 71 nm 113° / 113° OITA

Altitude Profile

Advertisement - Login to hide

RJFF

Details ICAO RJFF (FUK)
Name FUKUOKA
Region Japan
Timezone Asia/Tokyo (UTC+9.0)
Stats Elevation 32 ft / 10 m (AMSL)
Location 33.585943° 130.450686°
Runways 1
Magnetic Variation 7.448° W

METAR

RJFF 122330Z 32009KT 280V340 9999 FEW040 04/M06 Q1026

Decode

TAF

TAF RJFF 122305Z 1300/1406 33013KT 9999 FEW030 BKN040 BECMG 1318/1321 03009KT

Decode

Departure Runways

ID Width Length Bearing (true) Bearing (mag) Surface Threshold Offset Overrun Length
16 197 ft / 60 m 9,217 ft / 2,810 m 150.35° 157.80° Asphalt 0 ft / 0 m 719 ft / 219 m
34 197 ft / 60 m 9,217 ft / 2,810 m 330.35° 337.80° Asphalt 0 ft / 0 m 801 ft / 244 m

RJFO

Details ICAO RJFO (OIT)
Name OITA
Region Japan
Timezone Asia/Tokyo (UTC+9.0)
Stats Elevation 19 ft / 6 m (AMSL)
Location 33.479503° 131.737125°
Runways 1
Magnetic Variation 7.422° W

METAR

RJFO 122300Z 31005KT 280V350 9999 SCT035 BKN045 03/M04 Q1025

Decode

TAF

TAF RJFO 122309Z 1300/1406 31013KT 9999 FEW030 BKN050 TEMPO 1302/1309 31015G25KT BECMG 1400/1403 02007KT

Decode

Destination Runways

ID Width Length Bearing (true) Bearing (mag) Surface Threshold Offset Overrun Length
01 150 ft / 46 m 9,869 ft / 3,008 m 0.42° 7.84° Asphalt 0 ft / 0 m 200 ft / 61 m
19 150 ft / 46 m 9,869 ft / 3,008 m 180.42° 187.84° Asphalt 0 ft / 0 m 200 ft / 61 m

Approach Navaids

Runway Type Ident Frequency Range Bearing (true) Bearing (mag) Slope Elevation
01 Localiser ITF 111.50 MHz 18 nm / 33 km 0.42° 7.84° - 19 ft / 6 m (AMSL)
01 Glidescope ITF 111.50 MHz 10 nm / 19 km 0.42° 7.84° 3.00° 54 ft / 16 m (AMSL)
01 DME ITF 111.50 MHz 18 nm / 33 km - - - 38 ft / 12 m (AMSL)